KJEF/JEF METAR and TAF weather

Enter ICAO airport designator
Station Type Date Time Source
KJEF METAR 2018/12/15 22:53 UTC NOAA

KJEF 152253Z 33004KT 10SM CLR 11/M05 A3012 RMK AO2 SLP192 T01061050


Station Type Date Time Source
KJEF Decoded METAR 2018/12/15 22:53 UTC NOAA

JEFFERSON CITY MEMORIAL AIRPORT , MO, United States (KJEF) 38-36N 92-09W 168M
Dec 15, 2018 - 05:53 PM EST / 2018.12.15 2253 UTC
Wind: from the NNW (330 degrees) at 5 MPH (4 KT):0
Visibility: 10 mile(s):0
Sky conditions: clear
Temperature: 51.1 F (10.6 C)
Dew Point: 23.0 F (-5.0 C)
Relative Humidity: 32%
Pressure (altimeter): 30.12 in. Hg (1019 hPa)
ob: KJEF 152253Z 33004KT 10SM CLR 11/M05 A3012 RMK AO2 SLP192 T01061050
cycle: 23

Station Type Date Time Source
KJEF TAF UTC NOAA

Error!


Example: see airport list